createdAt,value
2023-05-14T00:01:20.320Z,98140.90
2023-05-14T00:03:47.204Z,98139.52
2023-05-14T00:06:15.208Z,98141.31
2023-05-14T00:08:42.208Z,98142.80
2023-05-14T00:11:12.050Z,98144.95
2023-05-14T00:13:38.890Z,98142.51
2023-05-14T00:16:05.892Z,98142.33
2023-05-14T00:18:33.023Z,98142.42
2023-05-14T00:20:59.830Z,98139.41
2023-05-14T00:23:26.524Z,98142.79
2023-05-14T00:25:53.674Z,98147.38
2023-05-14T00:28:20.849Z,98149.08
2023-05-14T00:30:48.530Z,98148.86
2023-05-14T00:33:15.641Z,98151.40
2023-05-14T00:35:42.438Z,98146.64
2023-05-14T00:38:09.849Z,98145.48
2023-05-14T00:40:36.940Z,98142.40
2023-05-14T00:43:03.792Z,98145.63
2023-05-14T00:45:30.668Z,98142.30
2023-05-14T00:47:57.985Z,98147.14
2023-05-14T00:50:25.397Z,98147.09
2023-05-14T00:52:52.821Z,98149.02
2023-05-14T00:55:19.575Z,98147.02
2023-05-14T00:57:46.325Z,98146.54
2023-05-14T01:00:13.512Z,98148.12
2023-05-14T01:02:40.509Z,98144.15
2023-05-14T01:05:08.755Z,98145.52
2023-05-14T01:08:04.527Z,98144.34
2023-05-14T01:10:41.939Z,98145.87
2023-05-14T01:13:21.192Z,98145.32
2023-05-14T01:15:48.154Z,98148.71
2023-05-14T01:18:17.863Z,98154.73
2023-05-14T01:20:45.615Z,98152.24
2023-05-14T01:23:12.329Z,98152.46
2023-05-14T01:25:39.091Z,98151.48
2023-05-14T01:28:10.708Z,98149.30
2023-05-14T01:30:40.657Z,98152.15
2023-05-14T01:33:10.068Z,98153.29
2023-05-14T01:35:37.029Z,98153.77
2023-05-14T01:38:05.309Z,98150.98
2023-05-14T01:40:32.230Z,98151.20
2023-05-14T01:42:59.275Z,98155.48
2023-05-14T01:45:26.311Z,98155.95
2023-05-14T01:47:53.457Z,98155.99
2023-05-14T01:50:20.364Z,98155.56
2023-05-14T01:52:48.461Z,98153.39
2023-05-14T01:55:16.105Z,98154.77
2023-05-14T01:57:42.928Z,98153.38
2023-05-14T02:00:10.031Z,98153.80
2023-05-14T02:02:42.517Z,98150.98
2023-05-14T02:05:11.612Z,98151.45
2023-05-14T02:07:38.368Z,98149.20
2023-05-14T02:10:05.890Z,98149.95
2023-05-14T02:12:32.680Z,98147.92
2023-05-14T02:14:59.650Z,98143.78
2023-05-14T02:17:28.104Z,98143.41
2023-05-14T02:19:54.991Z,98144.77
2023-05-14T02:22:21.847Z,98146.95
2023-05-14T02:24:49.883Z,98142.40
2023-05-14T02:27:17.892Z,98140.00
2023-05-14T02:29:44.933Z,98142.84
2023-05-14T02:32:11.717Z,98143.14
2023-05-14T02:34:38.905Z,98141.95
2023-05-14T02:37:05.681Z,98143.46
2023-05-14T02:39:32.478Z,98142.67
2023-05-14T02:41:59.614Z,98141.46
2023-05-14T02:44:26.335Z,98140.60
2023-05-14T02:46:53.231Z,98140.48
2023-05-14T02:49:20.136Z,98139.95
2023-05-14T02:51:46.898Z,98138.15
2023-05-14T02:54:13.642Z,98140.83
2023-05-14T02:56:40.432Z,98140.81
2023-05-14T02:59:07.197Z,98139.66
2023-05-14T03:01:34.678Z,98140.29
2023-05-14T03:04:02.506Z,98141.44
2023-05-14T03:06:29.364Z,98135.70
2023-05-14T03:08:56.147Z,98139.19
2023-05-14T03:11:22.909Z,98140.75
2023-05-14T03:13:49.649Z,98145.73
2023-05-14T03:16:16.444Z,98146.60
2023-05-14T03:18:43.439Z,98142.50
2023-05-14T03:21:10.304Z,98140.59
2023-05-14T03:23:37.047Z,98141.73
2023-05-14T03:26:05.004Z,98142.88
2023-05-14T03:28:31.746Z,98143.32
2023-05-14T03:30:59.296Z,98143.08
2023-05-14T03:33:26.087Z,98141.48
2023-05-14T03:35:52.887Z,98140.02
2023-05-14T03:38:21.382Z,98139.61
2023-05-14T03:40:48.266Z,98140.40
2023-05-14T03:43:17.311Z,98138.89
2023-05-14T03:45:44.242Z,98142.29
2023-05-14T03:48:11.150Z,98141.73
2023-05-14T03:50:38.535Z,98142.56
2023-05-14T03:53:06.493Z,98147.98
2023-05-14T03:55:33.523Z,98142.56
2023-05-14T03:58:00.646Z,98145.27
2023-05-14T04:00:27.520Z,98142.84
2023-05-14T04:04:33.743Z,98144.31
2023-05-14T04:07:01.912Z,98145.14
2023-05-14T04:09:29.083Z,98142.92
2023-05-14T04:11:56.965Z,98140.48
2023-05-14T04:14:23.895Z,98141.58
2023-05-14T04:16:50.913Z,98135.43
2023-05-14T04:19:18.469Z,98133.98
2023-05-14T04:21:45.432Z,98135.89
2023-05-14T04:24:12.319Z,98139.04
2023-05-14T04:26:39.192Z,98137.83
2023-05-14T04:29:06.196Z,98137.69
2023-05-14T04:31:33.115Z,98136.95
2023-05-14T04:33:59.901Z,98138.34
2023-05-14T04:36:27.285Z,98144.00
2023-05-14T04:38:54.093Z,98143.98
2023-05-14T04:41:21.255Z,98143.95
2023-05-14T04:43:49.706Z,98143.46
2023-05-14T04:46:16.638Z,98143.54
2023-05-14T04:48:43.732Z,98135.36
2023-05-14T04:51:10.773Z,98134.89
2023-05-14T04:53:37.513Z,98130.61
2023-05-14T04:56:04.263Z,98128.55
2023-05-14T04:58:34.504Z,98126.90
2023-05-14T05:01:02.981Z,98126.63
2023-05-14T05:03:29.990Z,98125.20
2023-05-14T05:05:56.850Z,98126.04
2023-05-14T05:08:23.724Z,98124.06
2023-05-14T05:10:50.681Z,98123.77
2023-05-14T05:13:17.477Z,98115.67
2023-05-14T05:15:44.257Z,98116.97
2023-05-14T05:18:10.999Z,98119.22
2023-05-14T05:20:37.733Z,98114.95
2023-05-14T05:23:04.489Z,98114.83
2023-05-14T05:25:31.282Z,98117.91
2023-05-14T05:27:58.105Z,98120.71
2023-05-14T05:30:25.149Z,98120.10
2023-05-14T05:32:52.247Z,98117.40
2023-05-14T05:35:19.128Z,98115.55
2023-05-14T05:37:46.328Z,98114.71
2023-05-14T05:40:14.478Z,98116.40
2023-05-14T05:42:41.892Z,98117.31
2023-05-14T05:45:09.028Z,98122.50
2023-05-14T05:47:35.844Z,98118.63
2023-05-14T05:50:02.686Z,98123.68
2023-05-14T05:52:29.677Z,98121.83
2023-05-14T05:54:56.452Z,98121.25
2023-05-14T05:57:25.112Z,98131.11
2023-05-14T05:59:53.301Z,98129.77
2023-05-14T06:02:20.307Z,98130.99
2023-05-14T06:04:47.346Z,98135.82
2023-05-14T06:07:14.162Z,98134.23
2023-05-14T06:09:40.975Z,98133.27
2023-05-14T06:12:08.101Z,98133.77
2023-05-14T06:14:34.895Z,98133.08
2023-05-14T06:17:01.776Z,98130.71
2023-05-14T06:19:28.700Z,98131.27
2023-05-14T06:21:56.094Z,98133.54
2023-05-14T06:24:22.872Z,98133.33
2023-05-14T06:26:49.861Z,98132.63
2023-05-14T06:29:16.627Z,98131.07
2023-05-14T06:31:43.575Z,98124.89
2023-05-14T06:34:11.164Z,98119.94
2023-05-14T06:36:38.628Z,98118.14
2023-05-14T06:39:05.488Z,98113.05
2023-05-14T06:41:32.342Z,98114.81
2023-05-14T06:43:59.178Z,98111.01
2023-05-14T06:46:26.013Z,98112.02
2023-05-14T06:48:52.795Z,98109.92
2023-05-14T06:51:19.556Z,98111.13
2023-05-14T06:53:47.741Z,98114.16
2023-05-14T06:56:14.784Z,98108.81
2023-05-14T06:58:41.498Z,98110.02
2023-05-14T07:01:08.359Z,98107.13
2023-05-14T07:03:35.092Z,98105.42
2023-05-14T07:06:02.014Z,98104.67
2023-05-14T07:08:28.884Z,98098.67
2023-05-14T07:10:57.497Z,98099.27
2023-05-14T07:13:25.739Z,98096.59
2023-05-14T07:15:55.895Z,98100.13
2023-05-14T07:18:23.428Z,98091.60
2023-05-14T07:20:50.212Z,98087.64
2023-05-14T07:23:19.122Z,98089.95
2023-05-14T07:25:46.738Z,98085.50
2023-05-14T07:28:13.623Z,98080.67
2023-05-14T07:30:40.582Z,98085.04
2023-05-14T07:33:07.410Z,98081.73
2023-05-14T07:35:34.239Z,98081.77
2023-05-14T07:38:01.028Z,98080.55
2023-05-14T07:40:28.028Z,98079.23
2023-05-14T07:42:54.848Z,98072.66
2023-05-14T07:45:21.648Z,98067.39
2023-05-14T07:47:52.082Z,98067.47
2023-05-14T07:50:19.288Z,98067.83
2023-05-14T07:52:46.134Z,98065.97
2023-05-14T07:55:13.129Z,98066.36
2023-05-14T07:57:39.875Z,98054.41
2023-05-14T08:00:10.047Z,98058.55
2023-05-14T08:02:39.538Z,98051.58
2023-05-14T08:05:06.815Z,98053.79
2023-05-14T08:07:33.746Z,98047.61
2023-05-14T08:10:00.671Z,98048.48
2023-05-14T08:12:28.843Z,98045.17
2023-05-14T08:14:56.365Z,98048.16
2023-05-14T08:17:23.113Z,98050.50
2023-05-14T08:19:50.001Z,98051.84
2023-05-14T08:22:16.861Z,98048.14
2023-05-14T08:24:43.860Z,98045.85
2023-05-14T08:27:10.730Z,98042.23
2023-05-14T08:29:37.550Z,98045.07
2023-05-14T08:32:15.595Z,98041.09
2023-05-14T08:34:49.419Z,98041.05
2023-05-14T08:37:16.349Z,98034.66
2023-05-14T08:39:43.414Z,98034.09
2023-05-14T08:42:10.159Z,98035.50
2023-05-14T08:44:40.137Z,98037.07
2023-05-14T08:47:07.060Z,98041.63
2023-05-14T08:49:41.022Z,98038.70
2023-05-14T08:52:11.497Z,98038.09
2023-05-14T08:54:38.786Z,98041.10
2023-05-14T08:57:05.900Z,98052.38
2023-05-14T08:59:32.633Z,98053.56
2023-05-14T09:02:01.788Z,98044.63
2023-05-14T09:04:29.685Z,98039.44
2023-05-14T09:06:56.623Z,98036.73
2023-05-14T09:09:23.479Z,98037.27
2023-05-14T09:11:51.178Z,98031.64
2023-05-14T09:14:18.025Z,98034.77
2023-05-14T09:16:48.925Z,98026.05
2023-05-14T09:19:16.056Z,98023.66
2023-05-14T09:21:43.271Z,98025.52
2023-05-14T09:24:10.193Z,98032.78
2023-05-14T09:26:36.970Z,98025.67
2023-05-14T09:29:04.280Z,98022.02
2023-05-14T09:31:32.087Z,98010.17
2023-05-14T09:33:59.408Z,98007.16
2023-05-14T09:36:29.252Z,98009.42
2023-05-14T09:39:00.182Z,98003.85
2023-05-14T09:41:26.973Z,98006.61
2023-05-14T09:43:53.952Z,97998.08
2023-05-14T09:46:22.757Z,97994.70
2023-05-14T09:48:50.159Z,98004.87
2023-05-14T09:51:17.789Z,97993.14
2023-05-14T09:53:44.540Z,97989.02
2023-05-14T09:56:11.294Z,97984.61
2023-05-14T09:58:38.034Z,97979.29
2023-05-14T10:01:04.845Z,97990.02
2023-05-14T10:03:31.614Z,97980.58
2023-05-14T10:06:01.398Z,97983.06
2023-05-14T10:08:29.724Z,97981.57
2023-05-14T10:10:56.842Z,97974.73
2023-05-14T10:13:24.866Z,97968.36
2023-05-14T10:15:58.231Z,97963.98
2023-05-14T10:18:24.949Z,97965.54
2023-05-14T10:21:04.288Z,97958.56
2023-05-14T10:23:31.224Z,97952.57
2023-05-14T10:25:59.148Z,97956.90
2023-05-14T10:28:25.933Z,97952.65
2023-05-14T10:30:53.059Z,97946.83
2023-05-14T10:33:19.859Z,97949.83
2023-05-14T10:36:06.980Z,97950.33
2023-05-14T10:38:37.463Z,97944.57
2023-05-14T10:41:05.641Z,97941.70
2023-05-14T10:43:44.986Z,97938.98
2023-05-14T10:46:13.024Z,97936.60
2023-05-14T10:48:42.199Z,97934.45
2023-05-14T10:51:09.266Z,97933.61
2023-05-14T10:53:37.528Z,97931.64
2023-05-14T10:56:09.047Z,97929.94
2023-05-14T10:58:40.595Z,97931.42
2023-05-14T11:01:08.551Z,97929.86
2023-05-14T11:03:46.299Z,97917.14
2023-05-14T11:06:16.093Z,97916.13
2023-05-14T11:08:44.067Z,97915.73
2023-05-14T11:11:11.087Z,97908.85
2023-05-14T11:13:38.473Z,97907.21
2023-05-14T11:16:15.630Z,97900.53
2023-05-14T11:18:55.160Z,97899.23
2023-05-14T11:21:22.151Z,97889.01
2023-05-14T11:23:48.932Z,97887.98
2023-05-14T11:26:15.941Z,97889.34
2023-05-14T11:28:42.725Z,97886.62
2023-05-14T11:31:09.538Z,97881.64
2023-05-14T11:33:36.401Z,97874.23
2023-05-14T11:36:04.432Z,97878.05
2023-05-14T11:38:31.163Z,97877.38
2023-05-14T11:40:58.881Z,97873.44
2023-05-14T11:43:26.256Z,97872.55
2023-05-14T11:45:53.888Z,97867.23
2023-05-14T11:48:21.831Z,97863.80
2023-05-14T11:50:49.883Z,97850.89
2023-05-14T11:53:27.200Z,97855.91
2023-05-14T11:55:54.628Z,97847.16
2023-05-14T11:58:21.963Z,97840.17
2023-05-14T12:00:52.582Z,97843.66
2023-05-14T12:03:25.976Z,97835.46
2023-05-14T12:06:00.132Z,97838.21
2023-05-14T12:08:31.514Z,97836.44
2023-05-14T12:10:59.206Z,97829.56
2023-05-14T12:13:32.451Z,97833.72
2023-05-14T12:16:00.922Z,97818.05
2023-05-14T12:18:30.044Z,97819.71
2023-05-14T12:20:58.424Z,97815.98
2023-05-14T12:23:29.394Z,97814.72
2023-05-14T12:25:56.325Z,97807.38
2023-05-14T12:28:23.290Z,97807.09
2023-05-14T12:30:56.588Z,97799.05
2023-05-14T12:33:24.109Z,97796.33
2023-05-14T12:35:50.913Z,97787.02
2023-05-14T12:38:18.028Z,97775.81
2023-05-14T12:40:44.816Z,97774.17
2023-05-14T12:43:11.700Z,97767.33
2023-05-14T12:45:38.494Z,97762.77
2023-05-14T12:48:06.203Z,97766.73
2023-05-14T12:50:32.925Z,97760.92
2023-05-14T12:52:59.757Z,97756.93
2023-05-14T12:55:26.546Z,97753.95
2023-05-14T12:57:54.329Z,97755.86
2023-05-14T13:00:21.584Z,97760.86
2023-05-14T13:02:48.563Z,97764.59
2023-05-14T13:05:15.775Z,97768.48
2023-05-14T13:07:42.597Z,97766.84
2023-05-14T13:10:10.025Z,97759.06
2023-05-14T13:12:36.982Z,97750.10
2023-05-14T13:15:04.101Z,97744.48
2023-05-14T13:17:31.090Z,97743.55
2023-05-14T13:19:58.014Z,97746.95
2023-05-14T13:22:24.873Z,97739.64
2023-05-14T13:24:52.053Z,97740.38
2023-05-14T13:27:18.922Z,97736.45
2023-05-14T13:29:45.666Z,97733.13
2023-05-14T13:32:12.670Z,97718.19
2023-05-14T13:34:39.538Z,97715.46
2023-05-14T13:37:06.436Z,97718.08
2023-05-14T13:39:33.283Z,97711.81
2023-05-14T13:42:01.216Z,97709.46
2023-05-14T13:44:28.047Z,97701.90
2023-05-14T13:46:54.989Z,97694.67
2023-05-14T13:49:21.827Z,97696.65
2023-05-14T13:51:48.635Z,97690.48
2023-05-14T13:54:15.556Z,97683.04
2023-05-14T13:56:42.468Z,97687.42
2023-05-14T13:59:09.414Z,97690.48
2023-05-14T14:01:36.197Z,97690.48
2023-05-14T14:04:03.406Z,97688.98
2023-05-14T14:06:31.267Z,97688.70
2023-05-14T14:08:58.135Z,97682.27
2023-05-14T14:11:25.061Z,97684.14
2023-05-14T14:13:51.857Z,97685.45
2023-05-14T14:16:19.002Z,97689.40
2023-05-14T14:18:46.097Z,97684.70
2023-05-14T14:21:12.840Z,97686.13
2023-05-14T14:23:39.639Z,97685.06
2023-05-14T14:26:06.583Z,97677.70
2023-05-14T14:28:33.402Z,97672.95
2023-05-14T14:31:00.177Z,97674.00
2023-05-14T14:33:27.582Z,97671.75
2023-05-14T14:35:54.430Z,97672.83
2023-05-14T14:38:21.223Z,97672.64
2023-05-14T14:40:48.047Z,97670.80
2023-05-14T14:43:14.870Z,97666.98
2023-05-14T14:45:42.881Z,97665.67
2023-05-14T14:48:31.872Z,97663.77
2023-05-14T14:50:58.945Z,97669.27
2023-05-14T14:53:25.978Z,97661.86
2023-05-14T14:55:53.089Z,97652.40
2023-05-14T14:58:20.047Z,97650.63
2023-05-14T15:00:47.166Z,97650.14
2023-05-14T15:03:15.166Z,97644.58
2023-05-14T15:05:42.911Z,97634.73
2023-05-14T15:08:10.245Z,97634.60
2023-05-14T15:10:38.509Z,97631.34
2023-05-14T15:13:06.206Z,97629.82
2023-05-14T15:15:33.752Z,97627.98
2023-05-14T15:18:00.704Z,97622.70
2023-05-14T15:20:27.505Z,97621.65
2023-05-14T15:22:54.665Z,97617.74
2023-05-14T15:25:21.887Z,97612.03
2023-05-14T15:27:48.931Z,97608.16
2023-05-14T15:30:15.923Z,97600.19
2023-05-14T15:32:43.156Z,97601.15
2023-05-14T15:35:09.993Z,97601.52
2023-05-14T15:37:38.431Z,97596.66
2023-05-14T15:40:09.280Z,97593.96
2023-05-14T15:42:36.673Z,97586.11
2023-05-14T15:45:03.746Z,97589.52
2023-05-14T15:47:30.633Z,97590.14
2023-05-14T15:49:57.445Z,97580.76
2023-05-14T15:52:24.218Z,97580.02
2023-05-14T15:54:51.179Z,97576.96
2023-05-14T15:57:19.872Z,97570.54
2023-05-14T15:59:47.410Z,97568.34
2023-05-14T16:02:14.724Z,97570.54
2023-05-14T16:04:41.558Z,97564.38
2023-05-14T16:07:09.930Z,97565.18
2023-05-14T16:09:36.963Z,97563.71
2023-05-14T16:12:05.004Z,97560.84
2023-05-14T16:14:33.671Z,97559.60
2023-05-14T16:17:00.645Z,97553.04
2023-05-14T16:21:39.756Z,97555.70
2023-05-14T16:24:07.271Z,97559.12
2023-05-14T16:26:33.962Z,97558.58
2023-05-14T16:29:01.362Z,97553.54
2023-05-14T16:31:28.323Z,97549.85
2023-05-14T16:33:55.668Z,97548.21
2023-05-14T16:36:23.046Z,97553.16
2023-05-14T16:39:06.828Z,97558.28
2023-05-14T16:41:35.808Z,97552.19
2023-05-14T16:44:02.655Z,97549.02
2023-05-14T16:46:30.490Z,97548.17
2023-05-14T16:48:57.721Z,97551.14
2023-05-14T16:51:24.460Z,97553.70
2023-05-14T16:53:52.039Z,97557.13
2023-05-14T16:56:19.664Z,97554.70
2023-05-14T16:58:46.725Z,97554.86
2023-05-14T17:01:13.871Z,97558.38
2023-05-14T17:03:40.983Z,97559.71
2023-05-14T17:06:10.134Z,97558.98
2023-05-14T17:08:37.000Z,97556.87
2023-05-14T17:11:06.597Z,97560.27
2023-05-14T17:13:33.521Z,97558.77
2023-05-14T17:16:00.986Z,97565.73
2023-05-14T17:18:28.461Z,97565.27
2023-05-14T17:20:55.362Z,97572.14
2023-05-14T17:23:22.123Z,97572.61
2023-05-14T17:25:49.201Z,97578.28
2023-05-14T17:28:16.019Z,97577.36
2023-05-14T17:30:42.780Z,97582.30
2023-05-14T17:33:09.606Z,97575.13
2023-05-14T17:35:37.398Z,97572.92
2023-05-14T17:38:04.182Z,97567.71
2023-05-14T17:40:31.141Z,97562.46
2023-05-14T17:42:57.898Z,97565.23
2023-05-14T17:45:24.969Z,97564.05
2023-05-14T17:47:52.384Z,97558.41
2023-05-14T17:50:19.591Z,97555.89
2023-05-14T17:52:47.613Z,97558.11
2023-05-14T17:55:14.535Z,97552.62
2023-05-14T17:57:42.122Z,97548.80
2023-05-14T18:00:09.482Z,97548.69
2023-05-14T18:02:39.548Z,97550.98
2023-05-14T18:05:06.689Z,97551.10
2023-05-14T18:07:33.458Z,97548.30
2023-05-14T18:10:00.261Z,97547.01
2023-05-14T18:12:27.600Z,97541.23
2023-05-14T18:14:54.390Z,97541.36
2023-05-14T18:17:21.304Z,97541.31
2023-05-14T18:19:48.434Z,97543.38
2023-05-14T18:22:15.733Z,97542.80
2023-05-14T18:24:44.350Z,97541.84
2023-05-14T18:27:11.187Z,97542.98
2023-05-14T18:29:37.985Z,97543.23
2023-05-14T18:32:05.462Z,97541.90
2023-05-14T18:34:32.723Z,97538.95
2023-05-14T18:36:59.550Z,97541.83
2023-05-14T18:39:26.386Z,97541.51
2023-05-14T18:41:53.297Z,97542.13
2023-05-14T18:44:20.327Z,97541.33
2023-05-14T18:46:47.171Z,97538.11
2023-05-14T18:49:14.064Z,97536.95
2023-05-14T18:51:40.932Z,97540.39
2023-05-14T18:54:07.703Z,97542.46
2023-05-14T18:56:35.780Z,97539.19
2023-05-14T18:59:02.635Z,97539.98
2023-05-14T19:01:29.598Z,97539.16
2023-05-14T19:03:56.776Z,97537.28
2023-05-14T19:06:23.716Z,97534.86
2023-05-14T19:08:50.559Z,97529.38
2023-05-14T19:11:18.234Z,97528.34
2023-05-14T19:13:47.004Z,97525.38
2023-05-14T19:16:14.014Z,97525.04
2023-05-14T19:18:41.211Z,97519.08
2023-05-14T19:21:08.196Z,97519.84
2023-05-14T19:23:35.059Z,97521.02
2023-05-14T19:26:01.963Z,97522.86
2023-05-14T19:28:28.702Z,97516.57
2023-05-14T19:30:57.390Z,97515.97
2023-05-14T19:33:24.402Z,97514.67
2023-05-14T19:35:52.049Z,97511.51
2023-05-14T19:38:19.831Z,97506.41
2023-05-14T19:40:46.732Z,97504.38
2023-05-14T19:43:13.778Z,97508.08
2023-05-14T19:45:42.703Z,97505.21
2023-05-14T19:48:09.801Z,97507.07
2023-05-14T19:50:37.168Z,97505.19
2023-05-14T19:53:04.747Z,97501.75
2023-05-14T19:55:31.875Z,97503.79
2023-05-14T19:57:58.655Z,97497.83
2023-05-14T20:00:26.738Z,97494.48
2023-05-14T20:02:54.731Z,97496.10
2023-05-14T20:05:21.778Z,97489.16
2023-05-14T20:07:48.968Z,97487.64
2023-05-14T20:10:15.743Z,97480.90
2023-05-14T20:12:42.596Z,97480.73
2023-05-14T20:15:09.797Z,97473.11
2023-05-14T20:17:38.373Z,97474.23
2023-05-14T20:20:06.952Z,97475.15
2023-05-14T20:22:33.744Z,97472.87
2023-05-14T20:25:00.566Z,97474.23
2023-05-14T20:27:27.315Z,97472.13
2023-05-14T20:29:54.303Z,97468.55
2023-05-14T20:32:25.131Z,97464.30
2023-05-14T20:34:52.072Z,97460.95
2023-05-14T20:37:19.915Z,97462.27
2023-05-14T20:39:46.851Z,97459.41
2023-05-14T20:42:13.761Z,97456.45
2023-05-14T20:44:40.648Z,97450.27
2023-05-14T20:47:07.512Z,97447.00
2023-05-14T20:49:34.460Z,97435.98
2023-05-14T20:52:01.583Z,97437.73
2023-05-14T20:54:28.345Z,97435.25
2023-05-14T20:56:55.168Z,97435.07
2023-05-14T20:59:22.020Z,97435.84
2023-05-14T21:01:48.847Z,97435.02
2023-05-14T21:04:15.821Z,97432.79
2023-05-14T21:06:42.786Z,97431.44
2023-05-14T21:09:10.796Z,97432.21
2023-05-14T21:11:37.819Z,97424.63
2023-05-14T21:14:04.674Z,97419.04
2023-05-14T21:16:31.444Z,97417.38
2023-05-14T21:18:58.986Z,97413.64
2023-05-14T21:21:27.036Z,97409.38
2023-05-14T21:23:53.826Z,97408.96
2023-05-14T21:26:21.674Z,97409.16
2023-05-14T21:28:49.041Z,97407.41
2023-05-14T21:31:15.909Z,97403.20
2023-05-14T21:33:42.964Z,97404.74
2023-05-14T21:36:10.184Z,97395.59
2023-05-14T21:38:37.581Z,97388.95
2023-05-14T21:41:04.361Z,97385.94
2023-05-14T21:43:31.115Z,97385.56
2023-05-14T21:45:58.631Z,97387.19
2023-05-14T21:48:25.774Z,97387.06
2023-05-14T21:50:52.571Z,97386.17
2023-05-14T21:53:19.302Z,97386.35
2023-05-14T21:55:46.200Z,97379.30
2023-05-14T21:58:13.155Z,97374.48
2023-05-14T22:00:40.464Z,97369.02
2023-05-14T22:03:07.323Z,97363.86
2023-05-14T22:05:34.278Z,97358.84
2023-05-14T22:08:01.158Z,97356.79
2023-05-14T22:10:27.914Z,97353.27
2023-05-14T22:12:54.814Z,97349.59
2023-05-14T22:15:21.652Z,97348.52
2023-05-14T22:17:48.506Z,97350.11
2023-05-14T22:20:15.254Z,97352.69
2023-05-14T22:22:42.766Z,97352.23
2023-05-14T22:25:09.952Z,97349.63
2023-05-14T22:27:36.772Z,97344.33
2023-05-14T22:30:03.789Z,97343.35
2023-05-14T22:32:30.637Z,97336.77
2023-05-14T22:34:57.674Z,97332.41
2023-05-14T22:37:24.475Z,97327.60
2023-05-14T22:39:51.686Z,97323.20
2023-05-14T22:42:20.453Z,97318.97
2023-05-14T22:44:47.382Z,97312.86
2023-05-14T22:47:14.259Z,97313.17
2023-05-14T22:49:41.516Z,97317.06
2023-05-14T22:52:08.737Z,97312.61
2023-05-14T22:54:36.445Z,97312.16
2023-05-14T22:57:03.861Z,97307.94
2023-05-14T22:59:30.695Z,97311.70
2023-05-14T23:01:57.493Z,97314.15
2023-05-14T23:04:24.440Z,97306.38
2023-05-14T23:06:51.304Z,97307.18
2023-05-14T23:09:18.113Z,97304.12
2023-05-14T23:11:44.922Z,97304.45
2023-05-14T23:14:12.123Z,97301.45
2023-05-14T23:16:38.902Z,97296.06
2023-05-14T23:19:05.860Z,97290.90
2023-05-14T23:21:33.276Z,97283.72
2023-05-14T23:24:00.042Z,97283.06
2023-05-14T23:26:27.244Z,97275.24
2023-05-14T23:28:53.957Z,97270.69
2023-05-14T23:31:21.185Z,97267.36
2023-05-14T23:33:48.376Z,97265.59
2023-05-14T23:36:15.170Z,97266.91
2023-05-14T23:38:41.974Z,97270.45
2023-05-14T23:41:08.798Z,97272.95
2023-05-14T23:43:36.111Z,97274.06
2023-05-14T23:46:03.045Z,97274.19
2023-05-14T23:48:29.927Z,97269.48
2023-05-14T23:50:56.801Z,97264.92
2023-05-14T23:53:23.872Z,97264.16
2023-05-14T23:55:50.733Z,97263.92
2023-05-14T23:58:17.466Z,97264.11
